Aktuální stav
Mostly Cloudy
Conditions



Tlak
1032.92 (hPa) - 30.5 (inHG)
Viditelnost

10.0 (km) - 6.2 (míle)
   Teplota
18  °C
64°F
5  °C
Rosný bod
43  %
 Vlhkost
   Rychlost větru
10  km/h
5  kts
6  mph
2.7  m/s
   Směr větru
Calm
Sever
   Leťiště
LKLN
Location Plzen Line 36 km (22.37 mi)
Metar :LKLN 271100Z AUTO VRB05KT 9999 BKN074 18/05 Q1033
Wed 27th May 13:00 pm